EXS74L EGGP-LOWI
Flight info
| Callsign | EXS74L |
|---|---|
| Flight time | N/A |
| Altitude | 37000 |
| Route | NANTI L8 HON L15 BIG UL9 KONAN UL607 KOK DCT DENOX DCT MATUG DCT BOMBI/N0462F310 T104 WLD M867 BAVAX Z106 MANAL M736 TULSI TULSI3A |
| Aircraft | B738/M-SDE2E3FGHIRWXY/LB1 |
Departure
| Time | 2026-04-30 13:45 |
|---|---|
| Airport | Liverpool John Lennon Airport (EGGP) |
Arrival
| Time | N/A |
|---|---|
| Airport | Innsbruck Airport (LOWI) |
| Time | Latitude | Longitude | Altitude | Speed | Heading |
|---|---|---|---|---|---|
| 2026-04-30 13:33 | 53.33558 | -2.85718 | 93 ft | 0 kts | 176° |
| 2026-04-30 13:39 | 53.33598 | -2.85701 | 94 ft | 4 kts | 240° |
| 2026-04-30 13:39 | 53.33603 | -2.85677 | 93 ft | 0 kts | 265° |
| 2026-04-30 13:41 | 53.33603 | -2.85678 | 93 ft | 0 kts | 265° |
| 2026-04-30 13:41 | 53.33602 | -2.85694 | 94 ft | 3 kts | 266° |
| 2026-04-30 13:42 | 53.33598 | -2.85764 | 95 ft | 9 kts | 264° |
| 2026-04-30 13:42 | 53.33590 | -2.85902 | 95 ft | 15 kts | 264° |
| 2026-04-30 13:42 | 53.33566 | -2.86269 | 94 ft | 14 kts | 232° |
| 2026-04-30 13:43 | 53.33483 | -2.86319 | 93 ft | 10 kts | 198° |
| 2026-04-30 13:43 | 53.33461 | -2.86414 | 93 ft | 9 kts | 265° |
| 2026-04-30 13:43 | 53.33455 | -2.86543 | 93 ft | 13 kts | 265° |
| 2026-04-30 13:43 | 53.33430 | -2.86696 | 94 ft | 13 kts | 229° |
| 2026-04-30 13:44 | 53.33350 | -2.86725 | 93 ft | 12 kts | 156° |
| 2026-04-30 13:44 | 53.33293 | -2.86642 | 93 ft | 10 kts | 118° |
| 2026-04-30 13:44 | 53.33289 | -2.86548 | 95 ft | 9 kts | 86° |
| 2026-04-30 13:44 | 53.33312 | -2.86044 | 95 ft | 92 kts | 84° |
| 2026-04-30 13:45 | 53.33529 | -2.82483 | 1342 ft | 182 kts | 85° |
| 2026-04-30 13:45 | 53.33681 | -2.80332 | 2488 ft | 183 kts | 89° |
| 2026-04-30 13:45 | 53.33518 | -2.78327 | 3593 ft | 172 kts | 121° |
| 2026-04-30 13:46 | 53.32705 | -2.76984 | 4643 ft | 164 kts | 153° |
| 2026-04-30 13:46 | 53.31704 | -2.76119 | 5610 ft | 168 kts | 149° |
| 2026-04-30 13:46 | 53.30637 | -2.75006 | 5926 ft | 197 kts | 148° |
| 2026-04-30 13:46 | 53.29393 | -2.73689 | 6145 ft | 225 kts | 148° |
| 2026-04-30 13:47 | 53.27996 | -2.72214 | 6524 ft | 245 kts | 148° |
| 2026-04-30 13:47 | 53.26528 | -2.70674 | 7373 ft | 250 kts | 148° |
| 2026-04-30 13:47 | 53.25043 | -2.69119 | 8386 ft | 254 kts | 149° |
| 2026-04-30 13:47 | 53.23523 | -2.67535 | 9286 ft | 260 kts | 149° |
| 2026-04-30 13:48 | 53.21975 | -2.65927 | 10294 ft | 263 kts | 149° |
| 2026-04-30 13:48 | 53.20369 | -2.64262 | 10827 ft | 284 kts | 149° |
| 2026-04-30 13:48 | 53.18598 | -2.62428 | 11030 ft | 313 kts | 148° |
| 2026-04-30 13:48 | 53.16767 | -2.60367 | 11540 ft | 327 kts | 146° |
| 2026-04-30 13:49 | 53.14891 | -2.58151 | 12350 ft | 332 kts | 145° |
| 2026-04-30 13:49 | 53.13004 | -2.55910 | 13250 ft | 334 kts | 145° |
| 2026-04-30 13:49 | 53.11098 | -2.53647 | 14101 ft | 337 kts | 144° |
| 2026-04-30 13:49 | 53.09176 | -2.51372 | 14847 ft | 341 kts | 145° |
| 2026-04-30 13:50 | 53.07222 | -2.49064 | 15585 ft | 346 kts | 145° |
| 2026-04-30 13:50 | 53.03267 | -2.44403 | 17045 ft | 354 kts | 146° |
| 2026-04-30 13:50 | 53.01235 | -2.42014 | 17775 ft | 359 kts | 146° |
| 2026-04-30 13:51 | 52.99181 | -2.39603 | 18473 ft | 363 kts | 146° |
| 2026-04-30 13:51 | 52.97111 | -2.37174 | 19147 ft | 365 kts | 146° |
| 2026-04-30 13:51 | 52.95035 | -2.34741 | 19867 ft | 366 kts | 146° |
| 2026-04-30 13:51 | 52.92941 | -2.32289 | 20514 ft | 369 kts | 146° |
| 2026-04-30 13:52 | 52.90827 | -2.29817 | 21141 ft | 373 kts | 146° |
| 2026-04-30 13:52 | 52.88698 | -2.27332 | 21760 ft | 376 kts | 146° |
| 2026-04-30 13:52 | 52.86550 | -2.24828 | 22373 ft | 379 kts | 145° |
| 2026-04-30 13:52 | 52.84387 | -2.22311 | 22975 ft | 381 kts | 145° |
| 2026-04-30 13:53 | 52.82232 | -2.19805 | 23567 ft | 384 kts | 145° |
| 2026-04-30 13:53 | 52.80034 | -2.17253 | 24088 ft | 387 kts | 145° |
| 2026-04-30 13:53 | 52.77823 | -2.14688 | 24581 ft | 389 kts | 145° |
| 2026-04-30 13:53 | 52.75598 | -2.12110 | 25071 ft | 391 kts | 145° |
| 2026-04-30 13:54 | 52.73358 | -2.09517 | 25560 ft | 393 kts | 145° |
| 2026-04-30 13:54 | 52.71138 | -2.06950 | 26042 ft | 395 kts | 146° |
| 2026-04-30 13:54 | 52.68886 | -2.04349 | 26529 ft | 396 kts | 146° |
| 2026-04-30 13:54 | 52.66627 | -2.01744 | 27149 ft | 394 kts | 146° |
| 2026-04-30 13:55 | 52.64384 | -1.99160 | 27673 ft | 394 kts | 146° |
| 2026-04-30 13:55 | 52.62101 | -1.96536 | 27754 ft | 405 kts | 146° |
| 2026-04-30 13:55 | 52.59766 | -1.93865 | 27998 ft | 411 kts | 146° |
| 2026-04-30 13:55 | 52.57412 | -1.91174 | 28437 ft | 412 kts | 146° |
| 2026-04-30 13:56 | 52.55057 | -1.88483 | 28908 ft | 412 kts | 146° |
| 2026-04-30 13:56 | 52.52694 | -1.85781 | 29292 ft | 415 kts | 146° |
| 2026-04-30 13:56 | 52.50315 | -1.83055 | 29655 ft | 417 kts | 146° |
| 2026-04-30 13:56 | 52.47930 | -1.80323 | 30028 ft | 419 kts | 146° |
| 2026-04-30 13:57 | 52.45535 | -1.77590 | 30373 ft | 420 kts | 146° |
| 2026-04-30 13:57 | 52.43122 | -1.74840 | 30631 ft | 423 kts | 146° |
| 2026-04-30 13:57 | 52.40732 | -1.72119 | 30897 ft | 425 kts | 146° |
| 2026-04-30 13:57 | 52.38307 | -1.69360 | 31284 ft | 424 kts | 146° |
| 2026-04-30 13:58 | 52.35913 | -1.66538 | 31690 ft | 422 kts | 142° |
| 2026-04-30 13:58 | 52.31765 | -1.59780 | 32404 ft | 423 kts | 135° |
| 2026-04-30 13:58 | 52.29746 | -1.56274 | 32796 ft | 423 kts | 135° |
| 2026-04-30 13:59 | 52.27721 | -1.52784 | 33180 ft | 422 kts | 135° |
| 2026-04-30 13:59 | 52.25693 | -1.49310 | 33593 ft | 421 kts | 135° |
| 2026-04-30 13:59 | 52.23675 | -1.45867 | 33948 ft | 420 kts | 135° |
| 2026-04-30 13:59 | 52.21653 | -1.42427 | 34282 ft | 420 kts | 135° |
| 2026-04-30 14:00 | 52.19631 | -1.38996 | 34561 ft | 420 kts | 135° |
| 2026-04-30 14:00 | 52.15560 | -1.32101 | 35040 ft | 422 kts | 135° |
| 2026-04-30 14:00 | 52.13542 | -1.28690 | 35281 ft | 423 kts | 135° |
| 2026-04-30 14:01 | 52.11495 | -1.25233 | 35539 ft | 423 kts | 135° |
| 2026-04-30 14:01 | 52.09450 | -1.21783 | 35755 ft | 425 kts | 135° |
| 2026-04-30 14:01 | 52.07393 | -1.18317 | 35987 ft | 426 kts | 135° |
| 2026-04-30 14:01 | 52.05334 | -1.14853 | 36225 ft | 426 kts | 135° |
| 2026-04-30 14:02 | 52.03265 | -1.11380 | 36461 ft | 427 kts | 135° |
| 2026-04-30 14:02 | 52.01181 | -1.07936 | 36577 ft | 429 kts | 136° |
| 2026-04-30 14:02 | 51.99059 | -1.04498 | 36803 ft | 430 kts | 136° |
| 2026-04-30 14:02 | 51.96959 | -1.01042 | 37070 ft | 430 kts | 135° |
| 2026-04-30 14:03 | 51.92778 | -0.94028 | 37195 ft | 435 kts | 135° |
| 2026-04-30 14:03 | 51.88606 | -0.87035 | 37190 ft | 432 kts | 135° |
| 2026-04-30 14:04 | 51.84429 | -0.80079 | 37199 ft | 429 kts | 135° |
| 2026-04-30 14:04 | 51.80272 | -0.73185 | 37220 ft | 426 kts | 135° |
| 2026-04-30 14:05 | 51.76127 | -0.66347 | 37222 ft | 425 kts | 135° |
| 2026-04-30 14:05 | 51.71978 | -0.59533 | 37267 ft | 426 kts | 135° |
| 2026-04-30 14:06 | 51.65745 | -0.49324 | 37214 ft | 428 kts | 135° |
| 2026-04-30 14:07 | 51.59454 | -0.39057 | 37214 ft | 431 kts | 135° |
| 2026-04-30 14:08 | 51.53108 | -0.28743 | 37215 ft | 433 kts | 135° |
| 2026-04-30 14:08 | 51.46740 | -0.18436 | 37200 ft | 434 kts | 136° |
| 2026-04-30 14:09 | 51.42479 | -0.11562 | 37213 ft | 434 kts | 136° |
| 2026-04-30 14:10 | 51.36119 | -0.01301 | 37189 ft | 434 kts | 133° |
| 2026-04-30 14:10 | 51.34309 | 0.02581 | 37217 ft | 435 kts | 121° |
| 2026-04-30 14:10 | 51.32940 | 0.06890 | 37226 ft | 436 kts | 114° |
| 2026-04-30 14:11 | 51.31416 | 0.16318 | 37227 ft | 439 kts | 102° |
| 2026-04-30 14:11 | 51.30317 | 0.25956 | 37237 ft | 439 kts | 103° |
| 2026-04-30 14:12 | 51.29132 | 0.35540 | 37227 ft | 439 kts | 103° |
| 2026-04-30 14:12 | 51.27976 | 0.45068 | 37237 ft | 439 kts | 103° |
| 2026-04-30 14:13 | 51.26813 | 0.54641 | 37236 ft | 438 kts | 103° |
| 2026-04-30 14:13 | 51.25601 | 0.64189 | 37230 ft | 437 kts | 103° |
| 2026-04-30 14:14 | 51.24337 | 0.73695 | 37235 ft | 437 kts | 103° |
| 2026-04-30 14:14 | 51.23139 | 0.83203 | 37227 ft | 437 kts | 103° |
| 2026-04-30 14:15 | 51.21956 | 0.92633 | 37221 ft | 436 kts | 103° |
| 2026-04-30 14:15 | 51.20746 | 1.02130 | 37213 ft | 435 kts | 103° |
| 2026-04-30 14:16 | 51.19519 | 1.11532 | 37213 ft | 435 kts | 103° |
| 2026-04-30 14:16 | 51.18277 | 1.20960 | 37219 ft | 434 kts | 103° |
| 2026-04-30 14:17 | 51.17033 | 1.30386 | 37233 ft | 434 kts | 103° |
| 2026-04-30 14:17 | 51.15993 | 1.39885 | 37231 ft | 435 kts | 97° |
| 2026-04-30 14:18 | 51.15625 | 1.47894 | 37224 ft | 436 kts | 95° |
| 2026-04-30 14:18 | 51.15014 | 1.62342 | 37227 ft | 437 kts | 96° |
| 2026-04-30 14:19 | 51.14298 | 1.76827 | 37224 ft | 438 kts | 96° |
| 2026-04-30 14:20 | 51.13803 | 1.86490 | 37224 ft | 438 kts | 96° |
| 2026-04-30 14:20 | 51.13046 | 2.01034 | 37218 ft | 439 kts | 96° |
| 2026-04-30 14:21 | 51.12531 | 2.10735 | 37221 ft | 440 kts | 96° |
| 2026-04-30 14:22 | 51.11746 | 2.25261 | 37223 ft | 441 kts | 96° |
| 2026-04-30 14:22 | 51.10940 | 2.39866 | 37225 ft | 441 kts | 96° |
| 2026-04-30 14:23 | 51.09846 | 2.59227 | 37233 ft | 439 kts | 97° |
| 2026-04-30 14:24 | 51.08378 | 2.73571 | 37237 ft | 437 kts | 105° |
| 2026-04-30 14:25 | 51.05407 | 2.92242 | 37245 ft | 435 kts | 105° |
| 2026-04-30 14:26 | 51.03241 | 3.06226 | 37244 ft | 434 kts | 105° |
| 2026-04-30 14:27 | 51.01075 | 3.20218 | 37249 ft | 434 kts | 105° |
| 2026-04-30 14:27 | 50.99620 | 3.29543 | 37233 ft | 434 kts | 105° |
| 2026-04-30 14:28 | 50.97443 | 3.43397 | 37236 ft | 433 kts | 104° |
| 2026-04-30 14:28 | 50.95975 | 3.52672 | 37238 ft | 432 kts | 104° |
| 2026-04-30 14:29 | 50.93028 | 3.71135 | 37239 ft | 431 kts | 105° |
| 2026-04-30 14:31 | 50.89316 | 3.94114 | 37258 ft | 430 kts | 104° |
| 2026-04-30 14:31 | 50.87029 | 4.07867 | 37262 ft | 430 kts | 105° |
| 2026-04-30 14:32 | 50.84948 | 4.21635 | 37264 ft | 430 kts | 103° |
| 2026-04-30 14:33 | 50.83599 | 4.30856 | 37269 ft | 430 kts | 103° |
| 2026-04-30 14:33 | 50.81519 | 4.44661 | 37269 ft | 430 kts | 104° |
| 2026-04-30 14:34 | 50.80108 | 4.53866 | 37266 ft | 430 kts | 104° |
| 2026-04-30 14:34 | 50.78688 | 4.63068 | 37260 ft | 431 kts | 104° |
| 2026-04-30 14:35 | 50.76539 | 4.76892 | 37266 ft | 432 kts | 104° |
| 2026-04-30 14:36 | 50.75107 | 4.86045 | 37278 ft | 432 kts | 104° |
| 2026-04-30 14:36 | 50.73655 | 4.95270 | 37277 ft | 433 kts | 104° |
| 2026-04-30 14:37 | 50.72193 | 5.04510 | 37284 ft | 433 kts | 104° |
| 2026-04-30 14:37 | 50.70728 | 5.13717 | 37291 ft | 432 kts | 104° |
| 2026-04-30 14:38 | 50.69265 | 5.22859 | 37289 ft | 433 kts | 103° |
| 2026-04-30 14:38 | 50.67783 | 5.32072 | 37294 ft | 433 kts | 104° |
| 2026-04-30 14:39 | 50.66292 | 5.41284 | 37293 ft | 433 kts | 104° |
| 2026-04-30 14:39 | 50.64798 | 5.50472 | 37292 ft | 433 kts | 104° |
| 2026-04-30 14:40 | 50.62550 | 5.64193 | 37291 ft | 432 kts | 103° |
| 2026-04-30 14:40 | 50.61038 | 5.73365 | 37286 ft | 432 kts | 103° |
| 2026-04-30 14:41 | 50.59520 | 5.82521 | 37297 ft | 432 kts | 103° |
| 2026-04-30 14:41 | 50.58004 | 5.91611 | 37293 ft | 431 kts | 103° |
| 2026-04-30 14:42 | 50.56473 | 6.00748 | 37311 ft | 431 kts | 104° |
| 2026-04-30 14:42 | 50.54937 | 6.09866 | 37311 ft | 431 kts | 103° |
| 2026-04-30 14:43 | 50.53396 | 6.18964 | 37315 ft | 430 kts | 103° |
| 2026-04-30 14:43 | 50.51854 | 6.28023 | 37304 ft | 430 kts | 103° |
| 2026-04-30 14:44 | 50.50298 | 6.37117 | 37308 ft | 430 kts | 103° |
| 2026-04-30 14:44 | 50.48745 | 6.46146 | 37305 ft | 430 kts | 103° |
| 2026-04-30 14:45 | 50.47176 | 6.55219 | 37305 ft | 431 kts | 103° |
| 2026-04-30 14:45 | 50.45598 | 6.64299 | 37314 ft | 431 kts | 103° |
| 2026-04-30 14:46 | 50.44020 | 6.73333 | 37322 ft | 432 kts | 103° |
| 2026-04-30 14:46 | 50.42420 | 6.82444 | 37323 ft | 433 kts | 103° |
| 2026-04-30 14:47 | 50.40810 | 6.91567 | 37331 ft | 433 kts | 104° |
| 2026-04-30 14:47 | 50.39196 | 7.00661 | 37331 ft | 433 kts | 103° |
| 2026-04-30 14:48 | 50.37584 | 7.09708 | 37329 ft | 433 kts | 103° |
| 2026-04-30 14:48 | 50.35956 | 7.18794 | 37330 ft | 433 kts | 103° |
| 2026-04-30 14:49 | 50.34318 | 7.27885 | 37335 ft | 434 kts | 103° |
| 2026-04-30 14:49 | 50.32668 | 7.37003 | 37333 ft | 434 kts | 103° |
| 2026-04-30 14:50 | 50.30207 | 7.50574 | 37341 ft | 434 kts | 103° |
| 2026-04-30 14:51 | 50.27717 | 7.64182 | 37345 ft | 434 kts | 103° |
| 2026-04-30 14:52 | 50.25200 | 7.77785 | 37364 ft | 433 kts | 103° |
| 2026-04-30 14:52 | 50.22681 | 7.91310 | 37357 ft | 434 kts | 103° |
| 2026-04-30 14:53 | 50.20132 | 8.04900 | 37361 ft | 435 kts | 103° |
| 2026-04-30 14:54 | 50.16706 | 8.23005 | 37364 ft | 436 kts | 103° |
| 2026-04-30 14:55 | 50.14106 | 8.36631 | 37375 ft | 436 kts | 103° |
| 2026-04-30 14:56 | 50.10629 | 8.54696 | 37342 ft | 436 kts | 103° |
| 2026-04-30 14:57 | 50.07999 | 8.68250 | 37347 ft | 435 kts | 103° |
| 2026-04-30 14:58 | 50.02480 | 8.85034 | 37356 ft | 448 kts | 128° |
| 2026-04-30 14:58 | 49.95973 | 8.95451 | 37354 ft | 449 kts | 130° |
| 2026-04-30 15:00 | 49.85064 | 9.12832 | 37353 ft | 450 kts | 129° |
| 2026-04-30 15:01 | 49.76346 | 9.26779 | 37352 ft | 452 kts | 129° |
| 2026-04-30 15:01 | 49.69748 | 9.37278 | 37354 ft | 454 kts | 129° |
| 2026-04-30 15:02 | 49.65360 | 9.44236 | 37338 ft | 454 kts | 129° |
| 2026-04-30 15:03 | 49.54282 | 9.61716 | 37347 ft | 456 kts | 129° |
| 2026-04-30 15:04 | 49.43169 | 9.79127 | 37348 ft | 457 kts | 129° |
| 2026-04-30 15:05 | 49.37211 | 9.88419 | 36893 ft | 461 kts | 129° |
| 2026-04-30 15:06 | 49.32709 | 9.95410 | 35777 ft | 457 kts | 129° |
| 2026-04-30 15:06 | 49.28259 | 10.02297 | 34656 ft | 452 kts | 129° |
| 2026-04-30 15:07 | 49.23838 | 10.09127 | 33448 ft | 449 kts | 129° |
| 2026-04-30 15:07 | 49.19450 | 10.15894 | 32269 ft | 455 kts | 129° |
| 2026-04-30 15:08 | 49.14965 | 10.22787 | 31495 ft | 457 kts | 129° |
| 2026-04-30 15:08 | 49.08373 | 10.33320 | 31382 ft | 455 kts | 127° |
| 2026-04-30 15:09 | 49.04054 | 10.40326 | 31379 ft | 456 kts | 128° |
| 2026-04-30 15:10 | 48.95200 | 10.54347 | 31383 ft | 459 kts | 128° |
| 2026-04-30 15:11 | 48.82000 | 10.75379 | 31375 ft | 459 kts | 127° |
| 2026-04-30 15:13 | 48.70887 | 10.92747 | 31350 ft | 459 kts | 128° |
| 2026-04-30 15:14 | 48.55462 | 11.16943 | 31324 ft | 432 kts | 124° |
| 2026-04-30 15:17 | 48.38029 | 11.47459 | 31356 ft | 456 kts | 124° |
| 2026-04-30 15:18 | 48.27329 | 11.65110 | 31364 ft | 452 kts | 136° |
| 2026-04-30 15:19 | 48.18681 | 11.70460 | 29046 ft | 472 kts | 161° |